Rhonda Lamulle — WDC8441 — position and weather

sailwx.info

Track history (hours):
 
Tides and Currents Weather Stations Pressure Air Temp Water Temp Dewpoint Dewpoint Depression Visibility Wind Speed Wind Dir Waves Ship Positions

Rhonda Lamulle

More information available from US FCC via Universal Licensing System and Coast Guard Vessel Documentation Center.

Last reported at 2014-Aug-21 23:29 UTC. Time now 2014-Sep-01 13:51 UTC.
Position N 30°23' W 086°55'.
Warning: this ship's position is 10 days out of date.

Length 27 m; draft 3 m.

Type: Towing. MMSI: 367087160.

Date/timePositionNaut miles runAvg speedWind from/ knotsBaromVisibWave heightAir tempDewpointWater temp
2014-Aug-21 23:29N 30°23' W 086°55'6 5.9
2014-Aug-21 22:33N 30°24' W 086°48'5 5.0
2014-Aug-21 21:28N 30°24' W 086°42'0 0.0
2014-Aug-21 20:18N 30°24' W 086°42'0 0.0
2014-Aug-21 19:31N 30°24' W 086°42'0 0.0
2014-Aug-21 18:29N 30°24' W 086°42'0 0.0
2014-Aug-21 17:24N 30°24' W 086°42'0 0.0
2014-Aug-21 16:30N 30°24' W 086°42'0 0.0
2014-Aug-21 15:29N 30°24' W 086°42'0 0.0
2014-Aug-21 14:33N 30°24' W 086°42'0 0.0
2014-Aug-21 13:32N 30°24' W 086°42'0 0.0
2014-Aug-21 11:31N 30°24' W 086°42'0 0.0
2014-Aug-21 10:25N 30°24' W 086°42'0 0.0
2014-Aug-21 09:18N 30°24' W 086°42'0 0.0
2014-Aug-21 08:15N 30°24' W 086°42'0 0.0
2014-Aug-21 07:33N 30°24' W 086°42'0 0.0
2014-Aug-21 06:25N 30°24' W 086°42'0 0.0
2014-Aug-21 05:30N 30°24' W 086°42'0 0.0
2014-Aug-21 04:13N 30°24' W 086°42'0 0.0
2014-Aug-21 03:30N 30°24' W 086°42'0 0.0
2014-Aug-21 02:33N 30°24' W 086°42'2 1.6
2014-Aug-21 01:33N 30°24' W 086°40'6 5.6
2014-Aug-21 00:33N 30°24' W 086°34'6 6.0
2014-Aug-20 23:34N 30°28' W 086°28'2 1.5
2014-Aug-20 22:34N 30°29' W 086°29'0 0.0
2014-Aug-20 21:34N 30°29' W 086°29'0 0.0
2014-Aug-20 20:33N 30°29' W 086°29'0 0.0
2014-Aug-20 19:34N 30°29' W 086°29'0 0.0
2014-Aug-20 18:34N 30°29' W 086°29'0 0.0
2014-Aug-20 17:34N 30°29' W 086°29'0 0.0
2014-Aug-20 16:34N 30°29' W 086°29'0 0.0
2014-Aug-20 15:34N 30°29' W 086°29'0 0.0
2014-Aug-20 14:34N 30°29' W 086°29'0 0.0
2014-Aug-20 13:34N 30°29' W 086°29'0 0.0
2014-Aug-20 12:33N 30°29' W 086°29'0 0.0
2014-Aug-20 11:33N 30°29' W 086°29'0 0.0
2014-Aug-20 10:33N 30°29' W 086°29'0 0.0
2014-Aug-20 09:34N 30°29' W 086°29'0 0.0
2014-Aug-20 08:15N 30°29' W 086°29'0 0.0
2014-Aug-20 07:34N 30°29' W 086°29'0 0.0
2014-Aug-20 06:34N 30°29' W 086°29'0 0.0
2014-Aug-20 05:34N 30°29' W 086°29'0 0.0
2014-Aug-20 04:34N 30°29' W 086°29'0 0.0
2014-Aug-20 03:33N 30°29' W 086°29'0 0.0
2014-Aug-20 02:34N 30°29' W 086°29'0 0.0
2014-Aug-20 01:34N 30°29' W 086°29'0 0.0
2014-Aug-20 00:34N 30°29' W 086°29'0 0.0
2014-Aug-19 23:33N 30°29' W 086°29'0 0.0
2014-Aug-19 22:34N 30°29' W 086°29'0 0.0
2014-Aug-19 21:33N 30°29' W 086°29'0 0.0
2014-Aug-19 20:34N 30°29' W 086°29'0 0.0
2014-Aug-19 19:34N 30°29' W 086°29'0 0.0
2014-Aug-19 18:34N 30°29' W 086°29'0 0.0
2014-Aug-19 17:33N 30°29' W 086°29'0 0.0
2014-Aug-19 16:33N 30°29' W 086°29'0 0.0
2014-Aug-19 15:34N 30°29' W 086°29'0 0.0
2014-Aug-19 14:33N 30°29' W 086°29'0 0.0
2014-Aug-19 13:34N 30°29' W 086°29'0 0.0
2014-Aug-19 12:33N 30°29' W 086°29'0 0.4
2014-Aug-19 11:33N 30°29' W 086°29'4 4.5
2014-Aug-19 10:33N 30°26' W 086°25'5 5.5
2014-Aug-19 09:33N 30°26' W 086°19'  
2014-Aug-15 01:32N 30°26' W 086°13'5 5.2
2014-Aug-15 00:33N 30°26' W 086°19'5 5.5
2014-Aug-14 23:33N 30°26' W 086°26'5 5.4
2014-Aug-14 22:33N 30°25' W 086°32'5 5.1
2014-Aug-14 21:32N 30°24' W 086°38'  
Track history (hours):
 
Tides and Currents Weather Stations Pressure Air Temp Water Temp Dewpoint Dewpoint Depression Visibility Wind Speed Wind Dir Waves Ship Positions

Rhonda Lamulle

More information available from US FCC via Universal Licensing System and Coast Guard Vessel Documentation Center.

Last reported at 2014-Aug-21 23:29 UTC. Time now 2014-Sep-01 13:51 UTC.
Position N 30°23' W 086°55'.
Warning: this ship's position is 10 days out of date.

Length 27 m; draft 3 m.

Type: Towing. MMSI: 367087160.

Date/timePositionNaut miles runAvg speedWind from/ knotsBaromVisibWave heightAir tempDewpointWater temp
2014-Aug-21 23:29N 30°23' W 086°55'6 5.9
2014-Aug-21 22:33N 30°24' W 086°48'5 5.0
2014-Aug-21 21:28N 30°24' W 086°42'0 0.0
2014-Aug-21 20:18N 30°24' W 086°42'0 0.0
2014-Aug-21 19:31N 30°24' W 086°42'0 0.0
2014-Aug-21 18:29N 30°24' W 086°42'0 0.0
2014-Aug-21 17:24N 30°24' W 086°42'0 0.0
2014-Aug-21 16:30N 30°24' W 086°42'0 0.0
2014-Aug-21 15:29N 30°24' W 086°42'0 0.0
2014-Aug-21 14:33N 30°24' W 086°42'0 0.0
2014-Aug-21 13:32N 30°24' W 086°42'0 0.0
2014-Aug-21 11:31N 30°24' W 086°42'0 0.0
2014-Aug-21 10:25N 30°24' W 086°42'0 0.0
2014-Aug-21 09:18N 30°24' W 086°42'0 0.0
2014-Aug-21 08:15N 30°24' W 086°42'0 0.0
2014-Aug-21 07:33N 30°24' W 086°42'0 0.0
2014-Aug-21 06:25N 30°24' W 086°42'0 0.0
2014-Aug-21 05:30N 30°24' W 086°42'0 0.0
2014-Aug-21 04:13N 30°24' W 086°42'0 0.0
2014-Aug-21 03:30N 30°24' W 086°42'0 0.0
2014-Aug-21 02:33N 30°24' W 086°42'2 1.6
2014-Aug-21 01:33N 30°24' W 086°40'6 5.6
2014-Aug-21 00:33N 30°24' W 086°34'6 6.0
2014-Aug-20 23:34N 30°28' W 086°28'2 1.5
2014-Aug-20 22:34N 30°29' W 086°29'0 0.0
2014-Aug-20 21:34N 30°29' W 086°29'0 0.0
2014-Aug-20 20:33N 30°29' W 086°29'0 0.0
2014-Aug-20 19:34N 30°29' W 086°29'0 0.0
2014-Aug-20 18:34N 30°29' W 086°29'0 0.0
2014-Aug-20 17:34N 30°29' W 086°29'0 0.0
2014-Aug-20 16:34N 30°29' W 086°29'0 0.0
2014-Aug-20 15:34N 30°29' W 086°29'0 0.0
2014-Aug-20 14:34N 30°29' W 086°29'0 0.0
2014-Aug-20 13:34N 30°29' W 086°29'0 0.0
2014-Aug-20 12:33N 30°29' W 086°29'0 0.0
2014-Aug-20 11:33N 30°29' W 086°29'0 0.0
2014-Aug-20 10:33N 30°29' W 086°29'0 0.0
2014-Aug-20 09:34N 30°29' W 086°29'0 0.0
2014-Aug-20 08:15N 30°29' W 086°29'0 0.0
2014-Aug-20 07:34N 30°29' W 086°29'0 0.0
2014-Aug-20 06:34N 30°29' W 086°29'0 0.0
2014-Aug-20 05:34N 30°29' W 086°29'0 0.0
2014-Aug-20 04:34N 30°29' W 086°29'0 0.0
2014-Aug-20 03:33N 30°29' W 086°29'0 0.0
2014-Aug-20 02:34N 30°29' W 086°29'0 0.0
2014-Aug-20 01:34N 30°29' W 086°29'0 0.0
2014-Aug-20 00:34N 30°29' W 086°29'0 0.0
2014-Aug-19 23:33N 30°29' W 086°29'0 0.0
2014-Aug-19 22:34N 30°29' W 086°29'0 0.0
2014-Aug-19 21:33N 30°29' W 086°29'0 0.0
2014-Aug-19 20:34N 30°29' W 086°29'0 0.0
2014-Aug-19 19:34N 30°29' W 086°29'0 0.0
2014-Aug-19 18:34N 30°29' W 086°29'0 0.0
2014-Aug-19 17:33N 30°29' W 086°29'0 0.0
2014-Aug-19 16:33N 30°29' W 086°29'0 0.0
2014-Aug-19 15:34N 30°29' W 086°29'0 0.0
2014-Aug-19 14:33N 30°29' W 086°29'0 0.0
2014-Aug-19 13:34N 30°29' W 086°29'0 0.0
2014-Aug-19 12:33N 30°29' W 086°29'0 0.4
2014-Aug-19 11:33N 30°29' W 086°29'4 4.5
2014-Aug-19 10:33N 30°26' W 086°25'5 5.5
2014-Aug-19 09:33N 30°26' W 086°19'  
2014-Aug-15 01:32N 30°26' W 086°13'5 5.2
2014-Aug-15 00:33N 30°26' W 086°19'5 5.5
2014-Aug-14 23:33N 30°26' W 086°26'5 5.4
2014-Aug-14 22:33N 30°25' W 086°32'5 5.1
2014-Aug-14 21:32N 30°24' W 086°38'  

Dump ship's entire track history